Time;durP1;ratioP1;P1;durP2;ratioP2;P2;SDS_P1;SDS_P2;PMS_P1;PMS_P2;Temp;Humidity;BMP_temperature;BMP_pressure;BME280_temperature;BME280_humidity;BME280_pressure;Samples;Min_cycle;Max_cycle;Signal;HPM_P1;HPM_P2
2021/12/24 00:00:50;;;;;;;27.70;12.27;;;;;;;;;;4951543;28;20402;-66
2021/12/24 00:03:15;;;;;;;26.23;10.98;;;;;;;;;;4952709;28;20034;-66
2021/12/24 00:05:40;;;;;;;29.42;11.52;;;;;;;;;;4954351;28;20279;-67
2021/12/24 00:08:06;;;;;;;29.20;12.25;;;;;;;;;;4953669;28;20456;-66
2021/12/24 00:10:32;;;;;;;23.50;11.75;;;;;;;;;;4951180;28;20029;-66
2021/12/24 00:13:04;;;;;;;26.95;10.80;;;;;;;;;;4952296;28;20488;-66
2021/12/24 00:18:14;;;;;;;27.08;10.98;;;;;;;;;;4952155;28;20363;-66
2021/12/24 00:35:05;;;;;;;24.67;10.60;;;;;;;;;;4952008;28;20395;-66
2021/12/24 00:36:58;;;;;;;18.70;8.68;;;;;;;;;;4950624;28;20484;-68
2021/12/24 00:39:24;;;;;;;23.23;9.50;;;;;;;;;;4952302;28;20439;-66
2021/12/24 00:41:49;;;;;;;21.67;9.10;;;;;;;;;;4952660;28;20444;-66
2021/12/24 00:44:14;;;;;;;18.77;9.15;;;;;;;;;;4952891;28;20429;-66
2021/12/24 00:46:39;;;;;;;19.05;8.93;;;;;;;;;;4950868;28;20390;-66
2021/12/24 00:49:05;;;;;;;23.33;10.15;;;;;;;;;;4951503;28;20460;-66
2021/12/24 00:56:59;;;;;;;16.00;8.95;;;;;;;;;;4952807;28;20322;-67
2021/12/24 00:59:25;;;;;;;18.27;8.23;;;;;;;;;;4951562;28;20349;-66
2021/12/24 01:01:50;;;;;;;20.25;8.13;;;;;;;;;;4950372;28;20353;-66
2021/12/24 01:04:15;;;;;;;18.55;9.13;;;;;;;;;;4952802;28;20283;-66
2021/12/24 01:06:41;;;;;;;15.40;7.93;;;;;;;;;;4952763;28;20420;-67
2021/12/24 01:09:06;;;;;;;20.58;8.50;;;;;;;;;;4952122;28;20484;-66
2021/12/24 01:11:31;;;;;;;16.77;7.50;;;;;;;;;;4950174;28;20405;-66
2021/12/24 01:13:59;;;;;;;15.25;7.38;;;;;;;;;;4951189;28;20393;-66
2021/12/24 01:16:32;;;;;;;18.85;8.02;;;;;;;;;;4951392;28;20417;-66
2021/12/24 01:19:20;;;;;;;29.17;8.23;;;;;;;;;;4949653;28;20056;-67
2021/12/24 01:24:38;;;;;;;17.25;7.68;;;;;;;;;;4951757;28;20389;-66
2021/12/24 01:29:52;;;;;;;19.33;7.38;;;;;;;;;;4951026;28;20388;-67
2021/12/24 01:37:57;;;;;;;13.65;6.45;;;;;;;;;;4952002;28;20448;-66
2021/12/24 01:40:40;;;;;;;17.08;6.43;;;;;;;;;;4950816;28;20388;-66
2021/12/24 01:43:05;;;;;;;12.60;6.38;;;;;;;;;;4950589;28;20429;-66
2021/12/24 01:45:35;;;;;;;9.35;6.30;;;;;;;;;;4950477;28;20449;-66
2021/12/24 01:48:04;;;;;;;16.17;6.65;;;;;;;;;;4949055;28;20457;-66
2021/12/24 01:50:31;;;;;;;15.57;6.20;;;;;;;;;;4950367;28;20314;-69
2021/12/24 01:52:57;;;;;;;10.90;5.63;;;;;;;;;;4950929;28;20433;-66
2021/12/24 01:55:23;;;;;;;19.23;6.68;;;;;;;;;;4950537;28;20447;-67
2021/12/24 01:57:49;;;;;;;10.27;5.15;;;;;;;;;;4950777;28;20030;-66
2021/12/24 02:00:19;;;;;;;15.05;5.82;;;;;;;;;;4951136;28;20551;-67
2021/12/24 02:02:45;;;;;;;9.90;5.50;;;;;;;;;;4948740;28;20448;-66
2021/12/24 02:05:12;;;;;;;13.23;4.93;;;;;;;;;;4950392;28;20357;-66
2021/12/24 02:07:38;;;;;;;12.18;5.70;;;;;;;;;;4950341;28;20341;-67
2021/12/24 02:10:06;;;;;;;12.25;5.72;;;;;;;;;;4949312;28;20449;-66
2021/12/24 02:12:34;;;;;;;13.10;5.78;;;;;;;;;;4938168;28;20435;-66
2021/12/24 02:15:00;;;;;;;15.52;5.28;;;;;;;;;;4969774;28;20037;-67
2021/12/24 02:17:48;;;;;;;11.80;5.63;;;;;;;;;;4969844;28;20356;-67
2021/12/24 02:28:41;;;;;;;8.75;4.60;;;;;;;;;;4969904;28;20471;-66
2021/12/24 02:31:13;;;;;;;11.85;4.63;;;;;;;;;;4969739;28;20440;-67
2021/12/24 02:33:39;;;;;;;9.10;4.78;;;;;;;;;;4970433;28;20025;-68
2021/12/24 02:36:05;;;;;;;8.85;4.57;;;;;;;;;;4969334;28;20452;-67
2021/12/24 02:38:31;;;;;;;8.00;4.20;;;;;;;;;;4969474;28;20440;-67
2021/12/24 02:40:56;;;;;;;11.85;5.53;;;;;;;;;;4969422;28;20429;-66
2021/12/24 02:43:24;;;;;;;8.25;3.78;;;;;;;;;;4969837;28;20416;-67
2021/12/24 02:45:53;;;;;;;9.82;4.82;;;;;;;;;;4970043;28;20352;-67
2021/12/24 02:48:55;;;;;;;7.97;4.55;;;;;;;;;;4970103;28;20433;-66
2021/12/24 02:54:00;;;;;;;8.43;4.18;;;;;;;;;;4969893;28;20106;-67
2021/12/24 02:56:29;;;;;;;7.72;4.00;;;;;;;;;;4971314;28;20057;-66
2021/12/24 02:58:54;;;;;;;6.20;3.95;;;;;;;;;;4973598;28;20411;-67
2021/12/24 03:01:23;;;;;;;9.00;3.97;;;;;;;;;;4973500;28;20306;-68
2021/12/24 03:03:50;;;;;;;6.90;3.65;;;;;;;;;;4973107;28;20302;-67
2021/12/24 03:06:16;;;;;;;9.05;4.85;;;;;;;;;;4973142;28;20052;-66
2021/12/24 03:08:41;;;;;;;7.57;3.67;;;;;;;;;;4955285;28;20430;-66
2021/12/24 03:11:07;;;;;;;10.70;4.85;;;;;;;;;;4974276;28;20416;-66
2021/12/24 03:13:33;;;;;;;8.95;4.32;;;;;;;;;;4973930;28;20425;-66
2021/12/24 03:16:00;;;;;;;6.70;3.90;;;;;;;;;;4955950;28;20445;-66
2021/12/24 03:18:28;;;;;;;6.88;4.18;;;;;;;;;;4973180;28;20317;-68
2021/12/24 03:21:05;;;;;;;6.75;3.55;;;;;;;;;;4974711;28;20337;-66
2021/12/24 03:26:19;;;;;;;10.30;4.35;;;;;;;;;;4953596;28;20451;-66
2021/12/24 03:28:44;;;;;;;6.63;4.13;;;;;;;;;;4972828;28;20412;-66
2021/12/24 03:31:10;;;;;;;6.40;4.25;;;;;;;;;;4972688;28;20344;-66
2021/12/24 03:33:36;;;;;;;8.13;4.68;;;;;;;;;;4972874;28;20340;-66
2021/12/24 03:36:06;;;;;;;7.40;4.10;;;;;;;;;;4972816;28;20428;-67
2021/12/24 03:38:32;;;;;;;9.55;4.32;;;;;;;;;;4972867;28;20601;-67
2021/12/24 03:40:58;;;;;;;7.53;4.03;;;;;;;;;;4974000;28;20444;-67
2021/12/24 03:43:23;;;;;;;8.40;4.53;;;;;;;;;;4972838;28;20421;-67
2021/12/24 03:48:22;;;;;;;6.20;4.38;;;;;;;;;;4972604;28;20526;-67
2021/12/24 03:56:06;;;;;;;6.30;3.47;;;;;;;;;;4973425;28;20407;-66
2021/12/24 03:58:31;;;;;;;6.45;3.95;;;;;;;;;;4970942;28;20337;-66
2021/12/24 04:00:57;;;;;;;7.25;4.05;;;;;;;;;;4973982;28;20340;-66
2021/12/24 04:03:22;;;;;;;6.90;3.85;;;;;;;;;;4971103;28;20495;-67
2021/12/24 04:05:47;;;;;;;8.82;3.92;;;;;;;;;;4973020;28;20337;-67
2021/12/24 04:08:14;;;;;;;7.50;3.70;;;;;;;;;;4971889;28;20348;-67
2021/12/24 04:10:40;;;;;;;6.88;3.63;;;;;;;;;;4972000;28;20360;-66
2021/12/24 04:13:07;;;;;;;6.25;3.85;;;;;;;;;;4973023;28;20417;-66
2021/12/24 04:15:32;;;;;;;6.03;3.60;;;;;;;;;;4971802;28;20460;-66
2021/12/24 04:17:58;;;;;;;7.30;3.17;;;;;;;;;;4972395;28;20519;-66
2021/12/24 04:25:51;;;;;;;7.07;3.92;;;;;;;;;;4970905;28;20372;-67
2021/12/24 04:28:16;;;;;;;7.10;3.65;;;;;;;;;;4972101;28;20398;-66
2021/12/24 04:30:47;;;;;;;5.88;3.47;;;;;;;;;;4972067;28;20344;-66
2021/12/24 04:36:44;;;;;;;7.15;3.58;;;;;;;;;;4927767;28;20479;-66
2021/12/24 04:39:38;;;;;;;7.53;3.35;;;;;;;;;;4971938;28;20060;-68
2021/12/24 05:03:42;;;;;;;5.68;3.22;;;;;;;;;;4952828;28;20365;-68
2021/12/24 05:06:14;;;;;;;7.38;3.78;;;;;;;;;;4951845;28;20306;-66
2021/12/24 05:08:50;;;;;;;6.13;3.40;;;;;;;;;;4952888;28;20395;-66
2021/12/24 05:11:17;;;;;;;5.43;3.78;;;;;;;;;;4951383;28;20449;-66
2021/12/24 05:13:43;;;;;;;6.72;3.35;;;;;;;;;;4951759;28;20041;-67
2021/12/24 05:16:19;;;;;;;5.75;3.50;;;;;;;;;;4949919;28;20433;-66
2021/12/24 05:21:32;;;;;;;7.57;4.25;;;;;;;;;;4951434;28;20358;-66
2021/12/24 05:23:58;;;;;;;7.38;3.83;;;;;;;;;;4952036;28;20334;-66
2021/12/24 05:26:23;;;;;;;6.80;3.50;;;;;;;;;;4952625;28;20318;-66
2021/12/24 05:28:49;;;;;;;7.97;3.60;;;;;;;;;;4949733;28;20365;-66
2021/12/24 05:31:14;;;;;;;8.52;3.75;;;;;;;;;;4950698;28;20563;-66
2021/12/24 05:33:39;;;;;;;7.82;3.85;;;;;;;;;;4951117;28;20425;-66
2021/12/24 05:36:05;;;;;;;8.18;3.70;;;;;;;;;;4949688;28;20377;-67
2021/12/24 05:38:30;;;;;;;5.28;3.60;;;;;;;;;;4951418;28;20324;-69
2021/12/24 05:40:55;;;;;;;6.45;3.83;;;;;;;;;;4950927;28;20034;-66
2021/12/24 05:43:21;;;;;;;6.72;3.78;;;;;;;;;;4952565;28;20342;-66
2021/12/24 05:45:48;;;;;;;5.68;3.53;;;;;;;;;;4951350;28;20048;-67
2021/12/24 05:48:14;;;;;;;7.93;4.35;;;;;;;;;;4970700;28;20052;-67
2021/12/24 05:50:39;;;;;;;6.07;4.10;;;;;;;;;;4971695;28;20425;-67
2021/12/24 05:53:04;;;;;;;7.00;3.90;;;;;;;;;;4970709;28;20314;-66
2021/12/24 05:55:30;;;;;;;7.72;3.80;;;;;;;;;;4970376;28;20444;-67
2021/12/24 05:57:55;;;;;;;6.63;4.22;;;;;;;;;;4970935;28;20112;-66
2021/12/24 06:00:20;;;;;;;12.98;3.85;;;;;;;;;;4970522;28;20495;-67
2021/12/24 06:02:45;;;;;;;7.25;4.00;;;;;;;;;;4970424;28;20470;-66
2021/12/24 06:05:11;;;;;;;7.85;4.05;;;;;;;;;;4971689;28;20428;-67
2021/12/24 06:07:36;;;;;;;7.88;3.90;;;;;;;;;;4970079;28;20334;-67
2021/12/24 06:10:02;;;;;;;7.15;4.18;;;;;;;;;;4970643;28;20375;-67
2021/12/24 06:12:28;;;;;;;7.72;4.03;;;;;;;;;;4952028;28;20415;-67
2021/12/24 06:15:00;;;;;;;7.45;3.92;;;;;;;;;;4969912;28;20396;-67
2021/12/24 06:17:25;;;;;;;11.35;4.68;;;;;;;;;;4969756;28;20514;-67
2021/12/24 06:19:51;;;;;;;9.10;3.92;;;;;;;;;;4970407;28;20445;-67
2021/12/24 06:22:16;;;;;;;7.75;4.35;;;;;;;;;;4969790;28;20486;-66
2021/12/24 06:24:42;;;;;;;8.98;3.72;;;;;;;;;;4969664;28;20456;-66
2021/12/24 06:27:07;;;;;;;12.82;4.60;;;;;;;;;;4969621;28;20095;-67
2021/12/24 06:29:33;;;;;;;6.38;3.92;;;;;;;;;;4968838;28;20446;-66
2021/12/24 06:31:58;;;;;;;6.72;4.03;;;;;;;;;;4969600;28;20336;-66
2021/12/24 06:34:26;;;;;;;7.70;4.03;;;;;;;;;;4969830;28;20453;-67
2021/12/24 06:36:53;;;;;;;7.30;3.97;;;;;;;;;;4970830;28;20325;-66
2021/12/24 06:39:19;;;;;;;12.07;4.25;;;;;;;;;;4952636;28;20325;-67
2021/12/24 06:41:44;;;;;;;9.27;4.80;;;;;;;;;;4969939;28;20356;-68
2021/12/24 06:44:11;;;;;;;7.45;4.47;;;;;;;;;;4969617;28;20310;-67
2021/12/24 06:46:38;;;;;;;6.57;3.90;;;;;;;;;;4964507;28;20049;-67
2021/12/24 06:49:03;;;;;;;9.25;5.25;;;;;;;;;;4948597;28;20472;-67
2021/12/24 06:51:29;;;;;;;9.65;5.50;;;;;;;;;;4949876;28;20544;-67
2021/12/24 06:53:54;;;;;;;9.75;4.50;;;;;;;;;;4948422;28;20525;-66
2021/12/24 06:56:20;;;;;;;8.02;4.38;;;;;;;;;;4949897;28;20463;-66
2021/12/24 06:58:46;;;;;;;6.88;3.92;;;;;;;;;;4949808;28;20414;-67
2021/12/24 07:01:11;;;;;;;10.98;5.28;;;;;;;;;;4949587;28;20444;-66
2021/12/24 07:03:39;;;;;;;7.78;4.13;;;;;;;;;;4950367;28;20345;-67
2021/12/24 07:06:05;;;;;;;8.70;4.65;;;;;;;;;;4949946;28;20030;-66
2021/12/24 07:08:31;;;;;;;11.45;4.88;;;;;;;;;;4951440;28;20417;-66
2021/12/24 07:10:56;;;;;;;8.25;4.30;;;;;;;;;;4950304;28;20349;-67
2021/12/24 07:13:22;;;;;;;9.48;5.45;;;;;;;;;;4949985;28;20084;-66
2021/12/24 07:15:47;;;;;;;10.02;4.68;;;;;;;;;;4950108;28;20362;-67
2021/12/24 07:18:13;;;;;;;8.32;4.63;;;;;;;;;;4949729;28;20026;-66
2021/12/24 07:20:38;;;;;;;8.75;4.57;;;;;;;;;;4948082;28;20324;-67
2021/12/24 07:23:04;;;;;;;9.80;5.07;;;;;;;;;;4950035;28;20411;-66
2021/12/24 07:25:29;;;;;;;9.27;3.97;;;;;;;;;;4948520;28;20447;-66
2021/12/24 07:27:55;;;;;;;10.70;5.20;;;;;;;;;;4949630;28;20384;-67
2021/12/24 07:30:21;;;;;;;10.68;5.25;;;;;;;;;;4950325;28;20388;-67
2021/12/24 07:32:47;;;;;;;7.70;4.85;;;;;;;;;;4950824;28;20671;-66
2021/12/24 07:35:13;;;;;;;11.07;5.60;;;;;;;;;;4948109;28;20428;-67
2021/12/24 07:37:39;;;;;;;9.52;5.65;;;;;;;;;;4949561;28;20517;-67
2021/12/24 07:40:05;;;;;;;10.63;5.35;;;;;;;;;;4948017;28;20372;-66
2021/12/24 07:42:31;;;;;;;9.77;4.82;;;;;;;;;;4950195;28;20406;-67
2021/12/24 07:44:56;;;;;;;14.40;6.03;;;;;;;;;;4951869;28;20340;-67
2021/12/24 07:47:31;;;;;;;10.23;5.57;;;;;;;;;;4950958;28;20365;-67
2021/12/24 07:50:16;;;;;;;12.63;5.30;;;;;;;;;;4953250;28;20033;-67
2021/12/24 07:52:41;;;;;;;11.00;5.95;;;;;;;;;;4951461;28;20340;-67
2021/12/24 07:55:09;;;;;;;10.98;5.47;;;;;;;;;;4954039;28;20321;-70
2021/12/24 07:57:35;;;;;;;11.82;5.47;;;;;;;;;;4886657;28;20065;-67
2021/12/24 08:00:00;;;;;;;13.48;6.00;;;;;;;;;;4953118;28;20484;-67
2021/12/24 08:02:27;;;;;;;11.18;5.93;;;;;;;;;;4954284;28;20434;-68
2021/12/24 08:04:53;;;;;;;11.73;5.25;;;;;;;;;;4952428;28;20518;-67
2021/12/24 08:07:20;;;;;;;10.27;5.10;;;;;;;;;;4967466;28;20423;-67
2021/12/24 08:09:47;;;;;;;14.00;6.07;;;;;;;;;;4952495;28;20520;-67
2021/12/24 08:12:12;;;;;;;10.90;5.90;;;;;;;;;;4952608;28;20416;-67
2021/12/24 08:14:37;;;;;;;13.50;5.43;;;;;;;;;;4952648;28;20072;-67
2021/12/24 08:17:03;;;;;;;15.40;6.63;;;;;;;;;;4953460;28;20461;-67
2021/12/24 08:19:29;;;;;;;10.30;5.72;;;;;;;;;;4952529;28;20368;-68
2021/12/24 08:21:55;;;;;;;20.17;6.85;;;;;;;;;;4954358;28;20029;-67
2021/12/24 08:24:21;;;;;;;12.23;6.47;;;;;;;;;;4950752;28;20365;-69
2021/12/24 08:26:46;;;;;;;14.57;7.72;;;;;;;;;;4951989;28;20361;-67
2021/12/24 08:29:11;;;;;;;15.60;7.15;;;;;;;;;;4952475;28;20447;-67
2021/12/24 08:31:37;;;;;;;14.07;7.60;;;;;;;;;;4952075;28;20411;-67
2021/12/24 08:34:05;;;;;;;17.88;8.68;;;;;;;;;;4951266;28;20433;-67
2021/12/24 08:36:30;;;;;;;16.92;7.68;;;;;;;;;;4953359;28;20580;-67
2021/12/24 08:38:56;;;;;;;15.57;6.22;;;;;;;;;;4953111;28;20449;-68
2021/12/24 08:41:25;;;;;;;13.77;7.18;;;;;;;;;;4952385;28;20448;-66
2021/12/24 08:43:50;;;;;;;15.30;6.85;;;;;;;;;;4951776;28;20396;-67
2021/12/24 08:46:16;;;;;;;12.13;7.72;;;;;;;;;;4954327;28;20154;-67
2021/12/24 08:48:41;;;;;;;13.35;6.80;;;;;;;;;;4971365;28;20121;-66
2021/12/24 08:51:07;;;;;;;17.13;8.23;;;;;;;;;;4971078;28;20335;-68
2021/12/24 08:53:32;;;;;;;17.73;8.38;;;;;;;;;;4970918;28;20421;-68
2021/12/24 08:55:58;;;;;;;16.63;7.82;;;;;;;;;;4969605;28;20441;-67
2021/12/24 08:58:23;;;;;;;16.67;8.27;;;;;;;;;;4967578;28;20433;-67
2021/12/24 09:00:48;;;;;;;18.88;7.88;;;;;;;;;;4952791;28;20080;-67
2021/12/24 09:03:14;;;;;;;18.83;7.65;;;;;;;;;;4971561;28;20458;-67
2021/12/24 09:05:39;;;;;;;17.70;7.97;;;;;;;;;;4970591;28;20482;-66
2021/12/24 09:08:05;;;;;;;16.35;8.05;;;;;;;;;;4972034;28;20294;-66
2021/12/24 09:10:30;;;;;;;18.50;8.13;;;;;;;;;;4952227;28;20419;-67
2021/12/24 09:12:56;;;;;;;14.35;7.07;;;;;;;;;;4971725;28;20468;-66
2021/12/24 09:15:22;;;;;;;17.40;8.00;;;;;;;;;;4970723;28;20444;-66
2021/12/24 09:17:48;;;;;;;16.13;7.10;;;;;;;;;;4971468;28;20428;-67
2021/12/24 09:20:21;;;;;;;15.77;6.95;;;;;;;;;;4970923;28;20490;-66
2021/12/24 09:22:48;;;;;;;14.82;7.32;;;;;;;;;;4970910;28;20352;-66
2021/12/24 09:25:13;;;;;;;18.33;7.97;;;;;;;;;;4970778;28;20452;-67
2021/12/24 09:27:39;;;;;;;20.00;7.57;;;;;;;;;;4971010;28;20316;-66
2021/12/24 09:30:05;;;;;;;12.43;7.22;;;;;;;;;;4969914;28;20456;-66
2021/12/24 09:32:31;;;;;;;13.20;6.90;;;;;;;;;;4952922;28;20459;-66
2021/12/24 09:34:57;;;;;;;12.95;6.75;;;;;;;;;;4970508;28;20409;-66
2021/12/24 09:37:22;;;;;;;13.68;7.18;;;;;;;;;;4970754;28;20519;-66
2021/12/24 09:39:47;;;;;;;16.08;7.70;;;;;;;;;;4970704;28;20467;-66
2021/12/24 09:42:13;;;;;;;13.20;6.88;;;;;;;;;;4971798;28;20499;-66
2021/12/24 09:44:38;;;;;;;15.40;6.80;;;;;;;;;;4953064;28;20329;-67
2021/12/24 09:47:04;;;;;;;11.23;6.43;;;;;;;;;;4948969;28;20506;-66
2021/12/24 09:49:29;;;;;;;17.90;6.90;;;;;;;;;;4949278;28;20037;-66
2021/12/24 09:51:58;;;;;;;15.18;7.72;;;;;;;;;;4949904;28;20483;-66
2021/12/24 09:54:24;;;;;;;16.35;7.82;;;;;;;;;;4950788;28;20309;-66
2021/12/24 09:56:51;;;;;;;15.70;7.60;;;;;;;;;;4950411;28;20459;-66
2021/12/24 09:59:17;;;;;;;14.63;7.63;;;;;;;;;;4951368;28;20323;-66
2021/12/24 10:01:50;;;;;;;16.77;7.38;;;;;;;;;;4949113;28;20321;-66
2021/12/24 10:04:18;;;;;;;11.93;6.82;;;;;;;;;;4948660;28;20451;-67
2021/12/24 10:06:53;;;;;;;11.57;6.95;;;;;;;;;;4949848;28;20463;-67
2021/12/24 10:09:19;;;;;;;12.25;6.40;;;;;;;;;;4951188;28;20022;-66
2021/12/24 10:11:50;;;;;;;14.35;7.20;;;;;;;;;;4948806;28;20485;-66
2021/12/24 10:14:18;;;;;;;15.57;7.20;;;;;;;;;;4949925;28;20441;-66
2021/12/24 10:16:44;;;;;;;15.80;7.25;;;;;;;;;;4949967;28;20109;-66
2021/12/24 10:19:10;;;;;;;15.73;7.10;;;;;;;;;;4948420;28;20416;-67
2021/12/24 10:21:36;;;;;;;18.17;6.90;;;;;;;;;;4948475;28;20034;-66
2021/12/24 10:24:04;;;;;;;13.65;7.32;;;;;;;;;;4964626;28;20129;-66
2021/12/24 10:26:35;;;;;;;15.88;7.10;;;;;;;;;;4950167;28;20437;-66
2021/12/24 10:29:05;;;;;;;15.63;7.60;;;;;;;;;;4948428;28;20498;-68
2021/12/24 10:31:38;;;;;;;17.40;7.43;;;;;;;;;;4933175;28;20385;-66
2021/12/24 10:34:27;;;;;;;14.82;6.85;;;;;;;;;;4949607;28;20455;-66
2021/12/24 10:36:58;;;;;;;18.58;7.22;;;;;;;;;;4948270;28;20034;-67
2021/12/24 10:39:25;;;;;;;17.08;8.05;;;;;;;;;;4949796;28;20456;-69
2021/12/24 10:41:52;;;;;;;16.55;6.88;;;;;;;;;;4948751;28;20373;-66
2021/12/24 10:44:19;;;;;;;14.05;6.88;;;;;;;;;;4948829;28;20487;-66
2021/12/24 10:47:08;;;;;;;15.50;7.75;;;;;;;;;;4955814;28;20453;-67
2021/12/24 10:49:53;;;;;;;16.88;7.70;;;;;;;;;;4967608;28;20353;-67
2021/12/24 10:55:05;;;;;;;14.95;7.80;;;;;;;;;;4969106;28;20660;-67
2021/12/24 10:57:35;;;;;;;16.25;6.53;;;;;;;;;;4969026;28;20383;-67
2021/12/24 11:00:14;;;;;;;14.70;7.47;;;;;;;;;;4968764;28;20326;-67
2021/12/24 11:02:39;;;;;;;14.55;7.20;;;;;;;;;;4969047;28;20351;-69
2021/12/24 11:05:22;;;;;;;16.00;7.72;;;;;;;;;;4968781;28;20380;-67
2021/12/24 11:07:48;;;;;;;15.13;7.28;;;;;;;;;;4968547;28;20048;-67
2021/12/24 11:10:23;;;;;;;17.33;7.50;;;;;;;;;;4968600;28;20380;-68
2021/12/24 11:12:54;;;;;;;15.88;7.25;;;;;;;;;;4951267;28;20407;-67
2021/12/24 11:15:22;;;;;;;15.57;7.80;;;;;;;;;;4951846;28;20433;-67
2021/12/24 11:17:49;;;;;;;14.90;7.43;;;;;;;;;;4972258;28;20033;-67
2021/12/24 11:20:15;;;;;;;14.15;6.95;;;;;;;;;;4955032;28;20360;-69
2021/12/24 11:22:53;;;;;;;15.48;7.00;;;;;;;;;;4954941;28;20407;-67
2021/12/24 11:25:20;;;;;;;14.77;7.82;;;;;;;;;;4956018;28;20363;-67
2021/12/24 11:27:45;;;;;;;16.45;6.82;;;;;;;;;;4955408;28;20353;-68
2021/12/24 11:30:11;;;;;;;16.40;7.30;;;;;;;;;;4970964;28;20372;-67
2021/12/24 11:32:36;;;;;;;13.55;6.75;;;;;;;;;;4954653;28;20338;-67
2021/12/24 11:35:02;;;;;;;22.70;8.43;;;;;;;;;;4972028;28;20079;-69
2021/12/24 11:37:29;;;;;;;12.55;7.05;;;;;;;;;;4954988;28;20348;-68
2021/12/24 11:39:54;;;;;;;14.68;7.97;;;;;;;;;;4954600;28;20080;-68
2021/12/24 11:42:21;;;;;;;20.52;7.72;;;;;;;;;;4970720;28;20505;-67
2021/12/24 11:44:46;;;;;;;13.45;6.93;;;;;;;;;;4970772;28;20088;-68
2021/12/24 11:47:12;;;;;;;18.92;8.35;;;;;;;;;;4967371;28;20515;-68
2021/12/24 11:49:37;;;;;;;15.05;7.50;;;;;;;;;;4952724;28;20433;-68
2021/12/24 11:52:04;;;;;;;13.85;7.05;;;;;;;;;;4950921;28;20057;-67
2021/12/24 11:54:29;;;;;;;16.02;6.63;;;;;;;;;;4952955;28;20372;-68
2021/12/24 11:56:56;;;;;;;13.13;6.10;;;;;;;;;;4951011;28;20333;-68
2021/12/24 11:59:36;;;;;;;18.48;8.35;;;;;;;;;;4952493;28;20464;-68
2021/12/24 12:02:01;;;;;;;16.50;7.55;;;;;;;;;;4952201;28;20384;-70
2021/12/24 12:04:26;;;;;;;18.73;8.63;;;;;;;;;;4952633;28;20100;-68
2021/12/24 12:06:52;;;;;;;14.00;7.47;;;;;;;;;;4951902;28;20417;-68
2021/12/24 12:09:17;;;;;;;16.20;7.63;;;;;;;;;;4951182;28;20342;-68
2021/12/24 12:11:44;;;;;;;16.20;8.02;;;;;;;;;;4950599;28;20333;-68
2021/12/24 12:14:10;;;;;;;15.75;8.00;;;;;;;;;;4950551;28;20519;-68
2021/12/24 12:16:41;;;;;;;14.02;6.75;;;;;;;;;;4954216;28;20454;-68
2021/12/24 12:19:15;;;;;;;15.77;7.28;;;;;;;;;;4952144;28;20034;-68
2021/12/24 12:21:43;;;;;;;15.85;6.93;;;;;;;;;;4952000;28;20446;-68
2021/12/24 12:26:47;;;;;;;16.75;7.28;;;;;;;;;;4951385;28;20331;-68
2021/12/24 12:29:15;;;;;;;18.58;8.18;;;;;;;;;;4949927;28;20136;-68
2021/12/24 12:31:41;;;;;;;15.27;7.75;;;;;;;;;;4952158;28;20471;-68
2021/12/24 12:34:41;;;;;;;12.30;7.07;;;;;;;;;;4951720;28;20423;-68
2021/12/24 12:37:14;;;;;;;15.18;6.75;;;;;;;;;;4951788;28;20417;-68
2021/12/24 12:39:40;;;;;;;12.98;7.97;;;;;;;;;;4951846;28;20445;-68
2021/12/24 12:42:06;;;;;;;16.80;7.75;;;;;;;;;;4951167;28;20503;-68
2021/12/24 12:44:33;;;;;;;18.77;7.90;;;;;;;;;;4966212;28;20314;-68
2021/12/24 12:47:10;;;;;;;19.05;7.30;;;;;;;;;;4950004;28;20380;-68
2021/12/24 12:49:36;;;;;;;19.05;8.60;;;;;;;;;;4949625;28;20547;-68
2021/12/24 12:52:07;;;;;;;15.23;8.00;;;;;;;;;;4952381;28;20433;-68
2021/12/24 12:54:44;;;;;;;14.55;7.55;;;;;;;;;;4949999;28;20307;-67
2021/12/24 12:57:32;;;;;;;13.55;6.63;;;;;;;;;;4951219;28;20369;-68
2021/12/24 13:00:07;;;;;;;19.20;7.90;;;;;;;;;;4949953;28;20334;-68
2021/12/24 13:02:57;;;;;;;18.60;7.80;;;;;;;;;;4951434;28;20026;-67
2021/12/24 13:05:23;;;;;;;17.88;8.27;;;;;;;;;;4951248;28;20445;-67
2021/12/24 13:07:49;;;;;;;18.88;7.78;;;;;;;;;;4949416;28;20376;-67
2021/12/24 13:10:16;;;;;;;18.65;8.85;;;;;;;;;;4949556;28;20402;-67
2021/12/24 13:12:42;;;;;;;20.83;8.57;;;;;;;;;;4951587;28;20334;-68
2021/12/24 13:15:15;;;;;;;18.17;8.93;;;;;;;;;;4951151;28;20385;-67
2021/12/24 13:17:44;;;;;;;15.15;7.90;;;;;;;;;;4950874;28;20477;-68
2021/12/24 13:20:16;;;;;;;12.80;7.45;;;;;;;;;;4950821;28;20521;-68
2021/12/24 13:22:41;;;;;;;15.70;8.30;;;;;;;;;;4951345;28;20037;-67
2021/12/24 13:25:11;;;;;;;13.57;7.85;;;;;;;;;;4951819;28;20487;-67
2021/12/24 13:27:41;;;;;;;20.25;8.88;;;;;;;;;;4951950;28;20302;-67
2021/12/24 13:30:22;;;;;;;15.75;7.35;;;;;;;;;;4951006;28;20034;-67
2021/12/24 13:32:56;;;;;;;17.52;8.30;;;;;;;;;;4949546;28;20386;-67
2021/12/24 13:35:25;;;;;;;13.50;8.10;;;;;;;;;;4948844;28;20026;-67
2021/12/24 13:37:51;;;;;;;13.65;7.15;;;;;;;;;;4950459;28;20417;-67
2021/12/24 13:40:22;;;;;;;14.60;8.20;;;;;;;;;;4948909;28;20356;-67
2021/12/24 13:42:56;;;;;;;19.60;8.43;;;;;;;;;;4949018;28;20547;-67
2021/12/24 13:45:24;;;;;;;17.23;7.75;;;;;;;;;;4949725;28;20385;-69
2021/12/24 13:48:04;;;;;;;15.05;7.43;;;;;;;;;;4964745;28;20361;-67
2021/12/24 13:56:06;;;;;;;16.95;7.90;;;;;;;;;;4970298;28;20055;-68
2021/12/24 13:58:32;;;;;;;14.98;7.57;;;;;;;;;;4969528;28;20029;-67
2021/12/24 14:01:00;;;;;;;15.63;7.78;;;;;;;;;;4952568;28;20313;-68
2021/12/24 14:03:28;;;;;;;14.27;7.70;;;;;;;;;;4952000;28;20345;-67
2021/12/24 14:05:56;;;;;;;16.25;7.32;;;;;;;;;;4952754;28;20507;-67
2021/12/24 14:08:27;;;;;;;17.17;8.00;;;;;;;;;;4952623;28;20408;-67
2021/12/24 14:11:14;;;;;;;14.55;7.00;;;;;;;;;;4951252;28;20443;-67
2021/12/24 14:13:47;;;;;;;14.32;7.63;;;;;;;;;;4969427;28;20056;-68
2021/12/24 14:16:33;;;;;;;16.17;7.60;;;;;;;;;;4952038;28;20527;-67
2021/12/24 14:19:14;;;;;;;15.55;7.50;;;;;;;;;;4954380;28;20436;-67
2021/12/24 14:21:50;;;;;;;15.30;7.30;;;;;;;;;;4969809;28;20459;-67
2021/12/24 14:24:23;;;;;;;20.50;7.93;;;;;;;;;;4969336;28;20360;-68
2021/12/24 14:27:04;;;;;;;16.27;7.63;;;;;;;;;;4969633;28;20052;-68
2021/12/24 14:29:43;;;;;;;15.23;7.35;;;;;;;;;;4952087;28;20405;-68
2021/12/24 14:32:16;;;;;;;13.43;6.35;;;;;;;;;;4967518;28;20321;-68
2021/12/24 14:34:49;;;;;;;11.55;6.85;;;;;;;;;;4969150;28;20456;-67
2021/12/24 14:37:24;;;;;;;13.55;6.63;;;;;;;;;;4968851;28;20479;-68
2021/12/24 14:39:56;;;;;;;20.13;8.02;;;;;;;;;;4969211;28;20025;-67
2021/12/24 14:42:24;;;;;;;18.30;7.43;;;;;;;;;;4950729;28;20445;-68
2021/12/24 14:44:53;;;;;;;15.10;7.07;;;;;;;;;;4969742;28;20341;-68
2021/12/24 14:47:22;;;;;;;15.80;7.35;;;;;;;;;;4967880;28;20465;-68
2021/12/24 14:49:48;;;;;;;13.88;7.38;;;;;;;;;;4951465;28;20463;-68
2021/12/24 14:52:18;;;;;;;17.05;6.95;;;;;;;;;;4975218;28;20460;-68
2021/12/24 14:55:06;;;;;;;15.38;7.60;;;;;;;;;;4973737;28;20340;-68
2021/12/24 14:57:35;;;;;;;14.05;6.63;;;;;;;;;;4976033;28;20106;-67
2021/12/24 15:00:10;;;;;;;;;;;;;;;;;;4957771;28;20364;-68
2021/12/24 15:02:46;;;;;;;15.93;6.65;;;;;;;;;;4957316;28;20235;-68
2021/12/24 15:05:12;;;;;;;18.52;7.80;;;;;;;;;;4974376;28;20455;-68
2021/12/24 15:07:37;;;;;;;19.73;8.13;;;;;;;;;;4975527;28;20429;-68
2021/12/24 15:10:12;;;;;;;17.17;8.02;;;;;;;;;;4973444;28;20571;-68
2021/12/24 15:12:57;;;;;;;18.15;7.22;;;;;;;;;;4975298;28;20091;-68
2021/12/24 15:15:22;;;;;;;17.40;7.82;;;;;;;;;;4959220;28;20429;-68
2021/12/24 15:17:48;;;;;;;14.10;7.78;;;;;;;;;;4973721;28;20363;-68
2021/12/24 15:20:13;;;;;;;16.10;7.43;;;;;;;;;;4957160;28;20084;-68
2021/12/24 15:22:39;;;;;;;14.98;7.63;;;;;;;;;;4973966;28;20321;-67
2021/12/24 15:25:08;;;;;;;18.00;8.57;;;;;;;;;;4975676;28;20372;-67
2021/12/24 15:27:36;;;;;;;16.75;6.63;;;;;;;;;;4975361;28;20455;-68
2021/12/24 15:30:04;;;;;;;12.57;7.32;;;;;;;;;;4975502;28;20128;-68
2021/12/24 15:32:30;;;;;;;17.67;8.13;;;;;;;;;;4974870;28;20566;-68
2021/12/24 15:34:55;;;;;;;16.60;7.40;;;;;;;;;;4956954;28;20441;-67
2021/12/24 15:37:20;;;;;;;16.88;7.82;;;;;;;;;;4974479;28;20060;-67
2021/12/24 15:39:46;;;;;;;20.38;8.48;;;;;;;;;;4974616;28;20061;-67
2021/12/24 15:42:11;;;;;;;16.17;6.07;;;;;;;;;;4973325;28;20432;-67
2021/12/24 15:44:42;;;;;;;20.67;7.82;;;;;;;;;;4975417;28;20026;-67
2021/12/24 15:47:08;;;;;;;14.90;7.20;;;;;;;;;;4974342;28;20483;-67
2021/12/24 15:49:33;;;;;;;14.55;7.40;;;;;;;;;;4957284;28;20542;-67
2021/12/24 15:52:00;;;;;;;18.35;7.35;;;;;;;;;;4976057;28;20575;-67
2021/12/24 15:54:25;;;;;;;17.02;7.53;;;;;;;;;;4975078;28;20448;-67
2021/12/24 15:56:51;;;;;;;15.95;7.43;;;;;;;;;;4974805;28;20490;-67
2021/12/24 15:59:16;;;;;;;21.20;7.97;;;;;;;;;;4973839;28;20380;-67
2021/12/24 16:01:41;;;;;;;17.15;7.68;;;;;;;;;;4973820;28;20335;-67
2021/12/24 16:04:07;;;;;;;14.38;7.07;;;;;;;;;;4971443;28;20171;-69
2021/12/24 16:06:32;;;;;;;15.15;6.72;;;;;;;;;;4971583;28;20343;-68
2021/12/24 16:08:57;;;;;;;17.85;7.40;;;;;;;;;;4971572;28;20413;-67
2021/12/24 16:11:23;;;;;;;14.80;7.80;;;;;;;;;;4970093;28;20337;-67
2021/12/24 16:13:48;;;;;;;14.48;6.95;;;;;;;;;;4971279;28;20366;-67
2021/12/24 16:16:15;;;;;;;22.80;8.75;;;;;;;;;;4969761;28;20444;-67
2021/12/24 16:18:40;;;;;;;15.23;7.38;;;;;;;;;;4970963;28;20052;-68